createdAt,value
2023-04-12T00:01:54.396Z,100.00
2023-04-12T00:04:29.785Z,100.00
2023-04-12T00:07:02.137Z,100.00
2023-04-12T00:09:37.566Z,100.00
2023-04-12T00:12:10.023Z,100.00
2023-04-12T00:14:43.095Z,100.00
2023-04-12T00:17:14.711Z,100.00
2023-04-12T00:19:50.209Z,100.00
2023-04-12T00:22:22.193Z,100.00
2023-04-12T00:24:59.529Z,100.00
2023-04-12T00:27:31.054Z,100.00
2023-04-12T00:30:04.624Z,100.00
2023-04-12T00:32:35.172Z,100.00
2023-04-12T00:35:05.696Z,100.00
2023-04-12T00:37:37.106Z,100.00
2023-04-12T00:40:09.683Z,100.00
2023-04-12T00:42:40.360Z,100.00
2023-04-12T00:45:13.592Z,100.00
2023-04-12T00:47:45.473Z,100.00
2023-04-12T00:50:17.050Z,100.00
2023-04-12T00:52:47.651Z,99.92
2023-04-12T00:55:18.949Z,98.65
2023-04-12T00:57:49.496Z,97.26
2023-04-12T01:00:22.450Z,95.29
2023-04-12T01:02:53.827Z,94.69
2023-04-12T01:05:26.658Z,94.05
2023-04-12T01:08:08.898Z,94.84
2023-04-12T01:10:49.178Z,96.86
2023-04-12T01:13:29.886Z,99.48
2023-04-12T01:16:09.939Z,100.00
2023-04-12T01:18:46.430Z,100.00
2023-04-12T01:21:21.609Z,100.00
2023-04-12T01:24:04.334Z,100.00
2023-04-12T01:26:42.236Z,100.00
2023-04-12T01:29:17.070Z,100.00
2023-04-12T01:31:53.554Z,99.99
2023-04-12T01:34:25.952Z,99.93
2023-04-12T01:36:58.094Z,97.47
2023-04-12T01:39:28.919Z,96.62
2023-04-12T01:41:59.548Z,94.31
2023-04-12T01:44:31.760Z,94.53
2023-04-12T01:47:02.905Z,93.90
2023-04-12T01:49:44.508Z,96.13
2023-04-12T01:52:20.333Z,92.69
2023-04-12T01:54:54.035Z,93.16
2023-04-12T01:57:35.287Z,92.55
2023-04-12T02:00:21.538Z,93.61
2023-04-12T02:02:55.014Z,93.67
2023-04-12T02:05:26.720Z,94.22
2023-04-12T02:07:58.333Z,91.34
2023-04-12T02:10:33.513Z,90.42
2023-04-12T02:13:05.618Z,88.94
2023-04-12T02:15:39.636Z,87.76
2023-04-12T02:18:14.814Z,85.75
2023-04-12T02:20:46.040Z,84.20
2023-04-12T02:23:17.593Z,85.32
2023-04-12T02:25:49.822Z,87.29
2023-04-12T02:28:21.349Z,84.75
2023-04-12T02:30:55.120Z,82.65
2023-04-12T02:33:29.172Z,82.00
2023-04-12T02:36:00.698Z,82.63
2023-04-12T02:38:32.228Z,82.19
2023-04-12T02:41:04.013Z,82.27
2023-04-12T02:43:36.829Z,80.58
2023-04-12T02:46:10.649Z,80.17
2023-04-12T02:48:42.423Z,79.26
2023-04-12T02:51:13.938Z,77.92
2023-04-12T02:53:45.503Z,79.33
2023-04-12T02:56:20.113Z,79.41
2023-04-12T02:58:51.397Z,79.63
2023-04-12T03:01:24.728Z,75.97
2023-04-12T03:03:58.290Z,72.50
2023-04-12T03:06:31.086Z,72.42
2023-04-12T03:09:02.699Z,73.23
2023-04-12T03:11:40.210Z,73.32
2023-04-12T03:14:11.660Z,72.04
2023-04-12T03:16:44.939Z,71.36
2023-04-12T03:19:16.084Z,69.25
2023-04-12T03:21:47.589Z,66.71
2023-04-12T03:24:19.302Z,65.66
2023-04-12T03:26:51.417Z,64.74
2023-04-12T03:29:23.175Z,66.25
2023-04-12T03:31:57.099Z,65.30
2023-04-12T03:34:29.604Z,66.26
2023-04-12T03:37:01.173Z,65.45
2023-04-12T03:39:33.057Z,64.63
2023-04-12T03:42:04.502Z,65.47
2023-04-12T03:44:35.830Z,63.58
2023-04-12T03:47:09.130Z,64.69
2023-04-12T03:49:41.108Z,63.13
2023-04-12T03:52:12.695Z,60.40
2023-04-12T03:54:45.228Z,61.59
2023-04-12T03:57:17.456Z,62.18
2023-04-12T03:59:49.066Z,60.00
2023-04-12T04:02:22.356Z,60.86
2023-04-12T04:04:54.718Z,60.37
2023-04-12T04:07:26.274Z,61.59
2023-04-12T04:10:01.288Z,59.70
2023-04-12T04:12:32.737Z,58.59
2023-04-12T04:15:04.353Z,56.64
2023-04-12T04:17:38.032Z,58.61
2023-04-12T04:20:10.779Z,57.57
2023-04-12T04:22:43.416Z,56.29
2023-04-12T04:25:15.280Z,57.83
2023-04-12T04:27:47.570Z,56.31
2023-04-12T04:30:19.855Z,50.14
2023-04-12T04:32:52.861Z,51.75
2023-04-12T04:35:25.422Z,52.55
2023-04-12T04:37:57.204Z,50.81
2023-04-12T04:40:28.980Z,53.61
2023-04-12T04:43:00.587Z,51.25
2023-04-12T04:45:31.938Z,49.00
2023-04-12T04:48:05.208Z,48.47
2023-04-12T04:50:37.567Z,49.02
2023-04-12T04:53:09.022Z,49.16
2023-04-12T04:55:40.980Z,48.60
2023-04-12T04:58:15.553Z,49.43
2023-04-12T05:00:47.931Z,51.07
2023-04-12T05:03:21.146Z,51.50
2023-04-12T05:05:52.870Z,52.92
2023-04-12T05:08:24.311Z,53.88
2023-04-12T05:10:56.011Z,53.46
2023-04-12T05:13:27.760Z,52.75
2023-04-12T05:15:59.313Z,49.11
2023-04-12T05:18:35.542Z,49.03
2023-04-12T05:21:07.587Z,49.00
2023-04-12T05:23:40.805Z,49.44
2023-04-12T05:26:12.280Z,49.90
2023-04-12T05:28:44.259Z,51.70
2023-04-12T05:31:15.871Z,50.84
2023-04-12T05:33:50.543Z,50.72
2023-04-12T05:36:24.237Z,51.67
2023-04-12T05:38:54.963Z,52.25
2023-04-12T05:41:25.733Z,54.14
2023-04-12T05:43:56.415Z,54.06
2023-04-12T05:46:27.169Z,53.96
2023-04-12T05:48:59.724Z,54.65
2023-04-12T05:51:40.429Z,54.74
2023-04-12T05:54:11.767Z,55.64
2023-04-12T05:56:42.926Z,55.93
2023-04-12T05:59:13.524Z,56.36
2023-04-12T06:01:45.494Z,57.20
2023-04-12T06:04:18.261Z,55.90
2023-04-12T06:06:48.992Z,56.30
2023-04-12T06:09:19.514Z,56.41
2023-04-12T06:11:49.990Z,56.83
2023-04-12T06:14:20.565Z,57.08
2023-04-12T06:16:51.038Z,56.51
2023-04-12T06:19:23.368Z,56.85
2023-04-12T06:21:55.074Z,56.67
2023-04-12T06:24:25.693Z,57.60
2023-04-12T06:26:56.729Z,57.88
2023-04-12T06:29:27.280Z,58.66
2023-04-12T06:31:58.029Z,58.43
2023-04-12T06:34:30.199Z,58.62
2023-04-12T06:37:00.871Z,58.43
2023-04-12T06:39:31.437Z,59.49
2023-04-12T06:42:02.753Z,60.18
2023-04-12T06:44:34.319Z,60.72
2023-04-12T06:47:04.847Z,60.41
2023-04-12T06:49:37.136Z,61.00
2023-04-12T06:52:07.760Z,61.14
2023-04-12T06:54:40.247Z,61.22
2023-04-12T06:57:13.121Z,61.29
2023-04-12T06:59:43.548Z,61.85
2023-04-12T07:02:14.225Z,61.86
2023-04-12T07:04:46.370Z,62.52
2023-04-12T07:07:17.273Z,62.51
2023-04-12T07:09:53.106Z,62.71
2023-04-12T07:12:24.388Z,62.84
2023-04-12T07:14:54.857Z,62.36
2023-04-12T07:17:27.802Z,62.54
2023-04-12T07:20:00.228Z,63.20
2023-04-12T07:22:30.762Z,63.41
2023-04-12T07:25:01.419Z,62.47
2023-04-12T07:27:34.934Z,62.91
2023-04-12T07:30:05.597Z,62.17
2023-04-12T07:32:36.315Z,62.21
2023-04-12T07:35:09.309Z,63.08
2023-04-12T07:37:41.121Z,62.42
2023-04-12T07:40:12.157Z,62.14
2023-04-12T07:42:42.695Z,62.27
2023-04-12T07:45:13.603Z,62.63
2023-04-12T07:47:44.166Z,62.11
2023-04-12T07:50:16.659Z,62.54
2023-04-12T07:52:47.132Z,62.73
2023-04-12T07:55:17.587Z,62.52
2023-04-12T07:57:51.108Z,62.82
2023-04-12T08:00:22.540Z,62.75
2023-04-12T08:02:53.261Z,62.26
2023-04-12T08:05:25.612Z,61.71
2023-04-12T08:07:56.977Z,61.17
2023-04-12T08:10:28.418Z,61.22
2023-04-12T08:12:59.123Z,61.16
2023-04-12T08:15:29.824Z,61.02
2023-04-12T08:18:00.536Z,61.30
2023-04-12T08:20:33.627Z,61.33
2023-04-12T08:23:04.160Z,61.09
2023-04-12T08:25:34.828Z,60.88
2023-04-12T08:28:05.912Z,60.52
2023-04-12T08:30:36.777Z,60.72
2023-04-12T08:33:07.552Z,60.64
2023-04-12T08:35:40.708Z,60.47
2023-04-12T08:38:11.294Z,60.39
2023-04-12T08:40:44.700Z,60.24
2023-04-12T08:43:18.725Z,60.48
2023-04-12T08:45:50.012Z,60.89
2023-04-12T08:48:20.934Z,60.67
2023-04-12T08:50:53.512Z,60.79
2023-04-12T08:53:24.128Z,61.08
2023-04-12T08:55:55.198Z,60.49
2023-04-12T08:58:26.565Z,61.07
2023-04-12T09:00:57.456Z,60.44
2023-04-12T09:03:33.289Z,60.72
2023-04-12T09:06:08.859Z,61.28
2023-04-12T09:08:39.784Z,61.45
2023-04-12T09:11:28.209Z,60.88
2023-04-12T09:14:00.517Z,61.42
2023-04-12T09:16:42.698Z,61.59
2023-04-12T09:19:13.540Z,61.99
2023-04-12T09:21:58.561Z,62.33
2023-04-12T09:24:29.323Z,62.45
2023-04-12T09:27:08.055Z,62.34
2023-04-12T09:29:38.668Z,62.73
2023-04-12T09:32:12.025Z,62.84
2023-04-12T09:34:57.301Z,62.72
2023-04-12T09:37:33.173Z,63.64
2023-04-12T09:40:05.367Z,63.06
2023-04-12T09:42:37.417Z,63.41
2023-04-12T09:45:22.988Z,63.50
2023-04-12T09:47:56.732Z,63.90
2023-04-12T09:50:29.403Z,63.86
2023-04-12T09:53:07.537Z,64.08
2023-04-12T09:55:40.838Z,64.69
2023-04-12T09:58:12.588Z,64.50
2023-04-12T10:00:45.198Z,64.84
2023-04-12T10:03:18.916Z,64.85
2023-04-12T10:05:49.826Z,64.96
2023-04-12T10:08:22.718Z,65.17
2023-04-12T10:10:54.683Z,65.51
2023-04-12T10:13:30.601Z,65.80
2023-04-12T10:16:03.122Z,65.38
2023-04-12T10:18:37.077Z,65.64
2023-04-12T10:21:11.670Z,65.75
2023-04-12T10:23:46.614Z,65.44
2023-04-12T10:26:19.653Z,65.30
2023-04-12T10:29:29.295Z,65.86
2023-04-12T10:32:20.911Z,66.06
2023-04-12T10:34:56.315Z,65.75
2023-04-12T10:38:02.773Z,65.83
2023-04-12T10:40:36.573Z,65.43
2023-04-12T10:43:28.985Z,65.54
2023-04-12T10:46:05.082Z,65.51
2023-04-12T10:48:37.023Z,65.98
2023-04-12T10:51:24.481Z,65.70
2023-04-12T10:54:00.885Z,65.74
2023-04-12T10:56:43.537Z,65.93
2023-04-12T10:59:15.321Z,65.85
2023-04-12T11:02:13.312Z,66.06
2023-04-12T11:05:11.522Z,65.89
2023-04-12T11:07:49.035Z,66.62
2023-04-12T11:10:22.510Z,66.86
2023-04-12T11:12:58.057Z,67.21
2023-04-12T11:15:31.114Z,66.72
2023-04-12T11:18:04.927Z,67.08
2023-04-12T11:20:39.171Z,67.12
2023-04-12T11:23:19.772Z,67.33
2023-04-12T11:25:55.674Z,67.49
2023-04-12T11:28:29.988Z,67.58
2023-04-12T11:31:03.536Z,67.45
2023-04-12T11:33:38.732Z,67.60
2023-04-12T11:36:15.710Z,67.70
2023-04-12T11:38:48.995Z,67.51
2023-04-12T11:41:22.177Z,67.95
2023-04-12T11:43:55.884Z,67.89
2023-04-12T11:46:29.309Z,67.88
2023-04-12T11:49:08.489Z,68.06
2023-04-12T11:51:42.400Z,68.28
2023-04-12T11:54:13.693Z,68.68
2023-04-12T11:56:46.860Z,68.61
2023-04-12T11:59:19.465Z,68.54
2023-04-12T12:01:53.630Z,68.50
2023-04-12T12:04:24.515Z,68.60
2023-04-12T12:06:56.018Z,68.34
2023-04-12T12:09:27.750Z,68.81
2023-04-12T12:11:58.930Z,68.88
2023-04-12T12:14:31.724Z,68.87
2023-04-12T12:17:05.710Z,68.82
2023-04-12T12:19:39.356Z,69.08
2023-04-12T12:22:14.634Z,69.21
2023-04-12T12:24:51.625Z,68.78
2023-04-12T12:27:38.612Z,68.20
2023-04-12T12:30:12.429Z,68.20
2023-04-12T12:32:43.211Z,67.59
2023-04-12T12:35:15.439Z,67.46
2023-04-12T12:37:53.493Z,66.70
2023-04-12T12:40:33.274Z,66.55
2023-04-12T12:43:03.846Z,66.86
2023-04-12T12:45:40.027Z,66.79
2023-04-12T12:48:10.861Z,66.57
2023-04-12T12:50:43.489Z,66.31
2023-04-12T12:53:14.373Z,66.03
2023-04-12T12:55:47.120Z,65.68
2023-04-12T12:58:17.812Z,65.62
2023-04-12T13:00:52.752Z,65.42
2023-04-12T13:03:23.576Z,65.23
2023-04-12T13:05:56.730Z,65.50
2023-04-12T13:08:32.692Z,65.43
2023-04-12T13:11:05.426Z,65.48
2023-04-12T13:13:38.911Z,66.01
2023-04-12T13:16:15.957Z,66.51
2023-04-12T13:18:49.767Z,66.54
2023-04-12T13:21:22.811Z,66.88
2023-04-12T13:23:56.269Z,66.54
2023-04-12T13:26:27.213Z,66.88
2023-04-12T13:28:58.109Z,66.66
2023-04-12T13:31:30.605Z,66.76
2023-04-12T13:34:01.285Z,66.93
2023-04-12T13:36:32.051Z,67.17
2023-04-12T13:39:02.597Z,67.35
2023-04-12T13:41:36.065Z,67.54
2023-04-12T13:44:07.906Z,67.73
2023-04-12T13:46:40.122Z,67.74
2023-04-12T13:49:13.910Z,68.43
2023-04-12T13:51:44.550Z,68.40
2023-04-12T13:54:16.411Z,68.61
2023-04-12T13:56:47.834Z,68.37
2023-04-12T13:59:18.603Z,68.67
2023-04-12T14:01:50.955Z,68.87
2023-04-12T14:04:21.851Z,68.79
2023-04-12T14:06:52.834Z,69.08
2023-04-12T14:09:27.176Z,69.29
2023-04-12T14:12:01.728Z,69.73
2023-04-12T14:14:34.315Z,70.03
2023-04-12T14:24:48.378Z,71.19
2023-04-12T14:27:23.643Z,71.36
2023-04-12T14:30:37.798Z,70.93
2023-04-12T14:33:14.388Z,71.15
2023-04-12T14:39:33.518Z,71.66
2023-04-12T14:45:40.401Z,72.04
2023-04-12T14:48:37.497Z,72.26
2023-04-12T14:51:15.174Z,72.39
2023-04-12T14:53:51.689Z,73.24
2023-04-12T14:56:31.560Z,73.60
2023-04-12T14:59:03.109Z,74.32
2023-04-12T15:05:28.449Z,74.26
2023-04-12T15:08:35.941Z,74.20
2023-04-12T15:11:06.877Z,74.90
2023-04-12T15:13:37.667Z,74.90
2023-04-12T15:16:18.819Z,75.02
2023-04-12T15:18:56.202Z,74.76
2023-04-12T15:21:31.887Z,74.50
2023-04-12T15:24:02.733Z,74.41
2023-04-12T15:29:54.636Z,74.02
2023-04-12T15:33:06.295Z,74.04
2023-04-12T15:39:22.659Z,73.60
2023-04-12T15:42:00.327Z,73.04
2023-04-12T15:44:32.795Z,73.10
2023-04-12T15:47:10.279Z,73.27
2023-04-12T15:49:45.598Z,72.86
2023-04-12T15:52:54.360Z,72.87
2023-04-12T15:56:16.382Z,72.61
2023-04-12T15:59:55.637Z,72.84
2023-04-12T16:02:31.149Z,72.74
2023-04-12T16:05:05.744Z,72.57
2023-04-12T16:07:38.628Z,72.54
2023-04-12T16:10:10.939Z,72.17
2023-04-12T16:13:37.688Z,72.34
2023-04-12T16:16:23.126Z,72.21
2023-04-12T16:18:56.653Z,72.17
2023-04-12T16:21:50.759Z,72.14
2023-04-12T16:28:11.592Z,72.04
2023-04-12T16:31:20.877Z,72.03
2023-04-12T16:34:21.157Z,71.83
2023-04-12T16:37:01.326Z,72.06
2023-04-12T16:39:33.117Z,72.28
2023-04-12T16:42:23.357Z,72.41
2023-04-12T16:45:01.736Z,72.75
2023-04-12T16:48:01.950Z,72.45
2023-04-12T16:50:54.596Z,72.39
2023-04-12T16:53:25.616Z,72.38
2023-04-12T16:55:58.132Z,72.29
2023-04-12T16:58:29.343Z,72.45
2023-04-12T17:01:24.524Z,72.32
2023-04-12T17:04:12.148Z,72.31
2023-04-12T17:06:56.389Z,72.23
2023-04-12T17:12:41.756Z,72.03
2023-04-12T17:15:38.246Z,71.77
2023-04-12T17:18:21.940Z,71.70
2023-04-12T17:21:11.257Z,71.59
2023-04-12T17:27:41.203Z,71.66
2023-04-12T17:30:23.747Z,71.45
2023-04-12T17:32:57.162Z,71.65
2023-04-12T17:35:34.763Z,71.55
2023-04-12T17:38:05.970Z,71.70
2023-04-12T17:40:36.714Z,71.50
2023-04-12T17:43:11.444Z,71.58
2023-04-12T17:46:06.668Z,71.60
2023-04-12T17:49:01.546Z,71.47
2023-04-12T17:51:46.928Z,71.66
2023-04-12T17:54:54.377Z,71.49
2023-04-12T17:57:42.845Z,71.57
2023-04-12T18:00:41.031Z,71.38
2023-04-12T18:03:12.969Z,71.67
2023-04-12T18:05:59.739Z,71.69
2023-04-12T18:08:47.824Z,71.48
2023-04-12T18:11:23.218Z,71.46
2023-04-12T18:14:24.704Z,71.26
2023-04-12T18:17:22.311Z,70.92
2023-04-12T18:20:17.274Z,70.73
2023-04-12T18:23:23.622Z,70.77
2023-04-12T18:26:06.300Z,71.09
2023-04-12T18:28:40.833Z,71.08
2023-04-12T18:31:14.440Z,71.28
2023-04-12T18:33:46.559Z,70.84
2023-04-12T18:40:16.945Z,70.83
2023-04-12T18:42:47.894Z,70.77
2023-04-12T18:45:18.523Z,70.50
2023-04-12T18:48:12.841Z,70.65
2023-04-12T18:50:52.608Z,70.59
2023-04-12T18:53:34.024Z,70.55
2023-04-12T18:56:25.237Z,70.79
2023-04-12T18:59:12.791Z,70.84
2023-04-12T19:01:43.366Z,70.98
2023-04-12T19:04:14.002Z,70.59
2023-04-12T19:06:51.716Z,70.36
2023-04-12T19:09:24.403Z,70.86
2023-04-12T19:11:56.355Z,70.86
2023-04-12T19:14:28.934Z,70.66
2023-04-12T19:16:59.436Z,70.69
2023-04-12T19:19:30.090Z,70.72
2023-04-12T19:22:02.817Z,70.47
2023-04-12T19:24:33.416Z,70.55
2023-04-12T19:27:04.463Z,70.81
2023-04-12T19:29:35.843Z,70.88
2023-04-12T19:32:07.741Z,70.78
2023-04-12T19:34:41.279Z,70.45
2023-04-12T19:37:13.468Z,70.67
2023-04-12T19:39:44.026Z,70.71
2023-04-12T19:42:15.884Z,71.13
2023-04-12T19:44:46.767Z,71.63
2023-04-12T19:47:17.415Z,71.35
2023-04-12T19:49:48.284Z,71.37
2023-04-12T19:52:25.586Z,71.53
2023-04-12T19:55:00.044Z,72.24
2023-04-12T19:57:31.963Z,72.28
2023-04-12T20:00:03.900Z,72.13
2023-04-12T20:02:35.022Z,72.17
2023-04-12T20:05:07.486Z,72.41
2023-04-12T20:07:39.727Z,72.40
2023-04-12T20:10:11.295Z,72.60
2023-04-12T20:12:41.987Z,72.53
2023-04-12T20:15:14.059Z,72.67
2023-04-12T20:17:45.574Z,72.82
2023-04-12T20:20:16.530Z,72.69
2023-04-12T20:22:52.726Z,72.72
2023-04-12T20:25:23.192Z,72.67
2023-04-12T20:27:54.031Z,72.42
2023-04-12T20:30:25.065Z,72.68
2023-04-12T20:32:55.786Z,72.82
2023-04-12T20:35:26.554Z,72.49
2023-04-12T20:37:58.771Z,72.57
2023-04-12T20:40:30.515Z,72.71
2023-04-12T20:43:01.099Z,72.90
2023-04-12T20:45:31.558Z,72.87
2023-04-12T20:48:02.288Z,72.54
2023-04-12T20:50:33.848Z,72.10
2023-04-12T20:53:06.145Z,71.64
2023-04-12T20:55:37.015Z,71.42
2023-04-12T20:58:08.160Z,71.79
2023-04-12T21:00:38.815Z,71.35
2023-04-12T21:03:09.568Z,71.01
2023-04-12T21:05:41.436Z,70.87
2023-04-12T21:08:13.936Z,71.21
2023-04-12T21:10:44.514Z,70.57
2023-04-12T21:13:15.100Z,70.43
2023-04-12T21:15:46.050Z,70.36
2023-04-12T21:18:16.668Z,69.90
2023-04-12T21:20:47.191Z,69.83
2023-04-12T21:23:19.785Z,69.74
2023-04-12T21:25:51.091Z,69.71
2023-04-12T21:28:21.575Z,69.58
2023-04-12T21:30:55.688Z,69.42
2023-04-12T21:33:26.975Z,69.06
2023-04-12T21:35:58.176Z,69.10
2023-04-12T21:38:30.519Z,68.53
2023-04-12T21:41:08.196Z,67.85
2023-04-12T21:43:38.857Z,68.22
2023-04-12T21:46:10.435Z,67.58
2023-04-12T21:48:41.384Z,67.42
2023-04-12T21:51:11.948Z,67.78
2023-04-12T21:53:44.227Z,67.46
2023-04-12T21:56:15.052Z,67.08
2023-04-12T21:58:45.651Z,66.82
2023-04-12T22:01:16.477Z,67.05
2023-04-12T22:03:47.246Z,67.22
2023-04-12T22:06:20.406Z,66.59
2023-04-12T22:08:52.920Z,66.82
2023-04-12T22:11:23.399Z,66.29
2023-04-12T22:13:53.842Z,66.60
2023-04-12T22:16:24.504Z,66.46
2023-04-12T22:18:56.662Z,65.73
2023-04-12T22:21:28.652Z,65.83
2023-04-12T22:24:05.033Z,65.89
2023-04-12T22:26:37.308Z,65.36
2023-04-12T22:29:08.134Z,65.72
2023-04-12T22:31:39.839Z,65.35
2023-04-12T22:34:14.623Z,64.66
2023-04-12T22:36:48.392Z,65.74
2023-04-12T22:39:21.125Z,65.81
2023-04-12T22:41:54.123Z,64.55
2023-04-12T22:44:25.127Z,64.18
2023-04-12T22:46:58.238Z,63.74
2023-04-12T22:49:32.062Z,63.73
2023-04-12T22:52:03.328Z,64.36
2023-04-12T22:54:36.123Z,63.99
2023-04-12T22:57:08.432Z,63.65
2023-04-12T22:59:40.869Z,63.44
2023-04-12T23:02:12.343Z,64.04
2023-04-12T23:04:50.221Z,63.48
2023-04-12T23:07:21.341Z,63.43
2023-04-12T23:09:54.754Z,63.34
2023-04-12T23:12:25.575Z,62.11
2023-04-12T23:14:57.813Z,62.08
2023-04-12T23:17:30.222Z,62.06
2023-04-12T23:20:02.806Z,62.22
2023-04-12T23:22:55.973Z,62.23
2023-04-12T23:25:40.193Z,61.08
2023-04-12T23:28:14.766Z,60.73
2023-04-12T23:30:48.608Z,60.67
2023-04-12T23:33:21.457Z,61.18
2023-04-12T23:35:54.325Z,60.39
2023-04-12T23:38:28.389Z,61.16
2023-04-12T23:41:02.108Z,60.58
2023-04-12T23:43:35.863Z,60.49
2023-04-12T23:46:07.846Z,59.56
2023-04-12T23:48:39.158Z,59.75
2023-04-12T23:51:11.133Z,59.91
2023-04-12T23:53:41.861Z,58.36
2023-04-12T23:56:14.647Z,59.45
2023-04-12T23:58:45.262Z,59.04
